Time;durP1;ratioP1;P1;durP2;ratioP2;P2;SDS_P1;SDS_P2;PMS_P1;PMS_P2;Temp;Humidity;BMP_temperature;BMP_pressure;BME280_temperature;BME280_humidity;BME280_pressure;Samples;Min_cycle;Max_cycle;Signal;HPM_P1;HPM_P2
2022/10/14 00:00:20;;;;;;;12.47;10.33;;;18.10;91.70;;;;;;5014536;28;20207;-94
2022/10/14 00:02:49;;;;;;;13.73;10.53;;;18.10;91.80;;;;;;5014361;28;20688;-94
2022/10/14 00:05:20;;;;;;;11.93;10.70;;;18.10;92.00;;;;;;5013655;28;20225;-94
2022/10/14 00:07:53;;;;;;;15.03;10.47;;;18.10;92.00;;;;;;5014574;28;20268;-93
2022/10/14 00:10:23;;;;;;;12.40;10.07;;;18.10;92.20;;;;;;5012713;28;20209;-94
2022/10/14 00:12:51;;;;;;;16.63;11.50;;;18.10;92.50;;;;;;5014386;28;20594;-94
2022/10/14 00:15:20;;;;;;;14.00;11.23;;;18.10;92.10;;;;;;5015792;28;20230;-94
2022/10/14 00:17:50;;;;;;;15.47;11.57;;;18.10;92.20;;;;;;5014776;28;20618;-94
2022/10/14 00:20:19;;;;;;;12.57;10.53;;;18.10;92.10;;;;;;5000781;28;20216;-93
2022/10/14 00:22:47;;;;;;;11.27;9.67;;;18.10;92.30;;;;;;5013894;28;20273;-94
2022/10/14 00:25:16;;;;;;;12.87;10.27;;;18.10;92.30;;;;;;5012777;28;20307;-93
2022/10/14 00:27:45;;;;;;;14.73;11.37;;;18.10;92.40;;;;;;5016664;28;20225;-95
2022/10/14 00:30:19;;;;;;;10.10;9.10;;;18.10;92.40;;;;;;5035213;28;20211;-93
2022/10/14 00:32:47;;;;;;;11.70;10.00;;;18.10;92.60;;;;;;5034091;28;20207;-94
2022/10/14 00:35:19;;;;;;;12.77;10.63;;;18.10;92.40;;;;;;5020015;28;20285;-94
2022/10/14 00:37:47;;;;;;;14.10;10.73;;;18.10;92.60;;;;;;5005589;28;20229;-94
2022/10/14 00:40:16;;;;;;;16.00;11.60;;;18.10;92.50;;;;;;5016698;28;20206;-94
2022/10/14 00:42:45;;;;;;;12.10;10.80;;;18.10;92.60;;;;;;5018029;28;20205;-95
2022/10/14 00:45:19;;;;;;;11.47;9.70;;;18.10;92.80;;;;;;5005416;28;20236;-93
2022/10/14 00:47:50;;;;;;;10.73;9.67;;;18.10;92.90;;;;;;4997495;28;21025;-94
2022/10/14 00:50:20;;;;;;;14.70;11.23;;;18.10;92.90;;;;;;5014133;28;20207;-94
2022/10/14 00:52:50;;;;;;;16.00;11.63;;;18.10;92.90;;;;;;5013942;28;20206;-93
2022/10/14 00:55:19;;;;;;;14.07;10.70;;;18.10;92.70;;;;;;5013833;28;20212;-94
2022/10/14 00:57:52;;;;;;;11.33;9.40;;;18.10;92.90;;;;;;5015184;28;20216;-94
2022/10/14 01:00:21;;;;;;;15.30;11.07;;;18.10;92.90;;;;;;5015605;28;20205;-93
2022/10/14 01:02:49;;;;;;;12.17;10.77;;;18.20;92.90;;;;;;4997212;28;20205;-93
2022/10/14 01:05:19;;;;;;;11.37;10.17;;;18.10;92.90;;;;;;4996836;28;20260;-94
2022/10/14 01:08:04;;;;;;;11.47;9.30;;;18.20;92.90;;;;;;5016969;28;20238;-93
2022/10/14 01:10:41;;;;;;;16.37;11.70;;;18.20;93.20;;;;;;5012710;28;20627;-93
2022/10/14 01:13:22;;;;;;;10.97;9.87;;;18.10;93.10;;;;;;5001467;28;20238;-94
2022/10/14 01:16:00;;;;;;;18.80;11.90;;;18.20;93.20;;;;;;5001464;28;20214;-93
2022/10/14 01:18:41;;;;;;;12.27;10.83;;;18.20;93.50;;;;;;5007664;28;20199;-93
2022/10/14 01:21:18;;;;;;;11.90;10.57;;;18.20;93.30;;;;;;5016256;28;20209;-94
2022/10/14 01:24:20;;;;;;;12.30;10.47;;;18.20;93.30;;;;;;5028357;28;20204;-94
2022/10/14 01:27:29;;;;;;;12.53;10.70;;;18.20;93.40;;;;;;5017936;28;20203;-93
2022/10/14 01:30:18;;;;;;;16.07;11.67;;;18.20;93.50;;;;;;5016843;28;20246;-93
2022/10/14 01:33:05;;;;;;;13.47;10.93;;;18.10;93.50;;;;;;5044729;28;20215;-94
2022/10/14 01:35:47;;;;;;;14.13;10.60;;;18.10;93.50;;;;;;5015299;28;20212;-93
2022/10/14 01:38:20;;;;;;;16.00;12.67;;;18.10;93.50;;;;;;5014755;28;20210;-93
2022/10/14 01:40:58;;;;;;;14.27;10.97;;;18.20;93.40;;;;;;5013699;28;20207;-93
2022/10/14 01:43:30;;;;;;;13.97;11.33;;;18.20;93.60;;;;;;5016816;28;20206;-94
2022/10/14 01:46:02;;;;;;;14.43;12.23;;;18.20;93.40;;;;;;5011416;28;20233;-94
2022/10/14 01:48:37;;;;;;;13.67;11.07;;;18.20;93.50;;;;;;5004009;28;20283;-94
2022/10/14 01:51:11;;;;;;;11.90;10.30;;;18.20;93.50;;;;;;5012828;28;20202;-94
2022/10/14 01:53:43;;;;;;;14.50;10.73;;;18.20;93.50;;;;;;5015561;28;20229;-93
2022/10/14 01:56:14;;;;;;;12.10;10.73;;;18.20;93.50;;;;;;5015267;28;20215;-96
2022/10/14 01:58:50;;;;;;;11.67;10.47;;;18.20;93.50;;;;;;5009590;28;20200;-95
2022/10/14 02:01:24;;;;;;;12.20;10.80;;;18.20;93.60;;;;;;5003950;28;20208;-94
2022/10/14 02:03:51;;;;;;;16.27;11.77;;;18.20;93.70;;;;;;5014231;28;20223;-94
2022/10/14 02:06:25;;;;;;;13.47;10.00;;;18.20;93.30;;;;;;5015620;28;20620;-94
2022/10/14 02:09:14;;;;;;;14.37;10.67;;;18.20;93.80;;;;;;5011637;28;20225;-94
2022/10/14 02:11:52;;;;;;;12.90;9.83;;;18.20;93.90;;;;;;5013326;28;20220;-94
2022/10/14 02:14:28;;;;;;;14.33;11.17;;;18.20;93.80;;;;;;5005869;28;20760;-93
2022/10/14 02:17:04;;;;;;;13.07;10.23;;;18.20;93.90;;;;;;5010296;28;20212;-93
2022/10/14 02:19:46;;;;;;;12.30;9.53;;;18.20;94.20;;;;;;5016775;28;20882;-94
2022/10/14 02:22:25;;;;;;;11.97;10.33;;;18.20;93.90;;;;;;5004799;28;20251;-94
2022/10/14 02:25:01;;;;;;;13.77;10.50;;;18.20;94.00;;;;;;5031973;28;20226;-94
2022/10/14 02:27:33;;;;;;;12.07;9.43;;;18.20;93.80;;;;;;5007083;28;20241;-95
2022/10/14 02:30:03;;;;;;;12.03;9.57;;;18.20;94.00;;;;;;5017736;28;20212;-94
2022/10/14 02:32:34;;;;;;;12.30;10.17;;;18.20;93.80;;;;;;5014662;28;20240;-95
2022/10/14 02:35:03;;;;;;;10.20;8.90;;;18.20;93.90;;;;;;5015156;28;20204;-94
2022/10/14 02:37:33;;;;;;;13.57;9.53;;;18.20;93.80;;;;;;5014507;28;20202;-94
2022/10/14 02:40:08;;;;;;;12.67;10.37;;;18.20;93.80;;;;;;5014381;28;20213;-94
2022/10/14 02:42:37;;;;;;;13.10;9.93;;;18.20;94.00;;;;;;5013075;28;20224;-95
2022/10/14 02:45:07;;;;;;;14.57;9.97;;;18.20;93.80;;;;;;5010323;28;20704;-95
2022/10/14 02:47:39;;;;;;;14.03;10.10;;;18.30;93.90;;;;;;5012998;28;20229;-95
2022/10/14 02:50:08;;;;;;;11.70;8.90;;;18.30;94.00;;;;;;5013925;28;20215;-93
2022/10/14 02:52:39;;;;;;;15.83;10.43;;;18.30;93.90;;;;;;5012167;28;20291;-95
2022/10/14 02:55:17;;;;;;;11.00;9.57;;;18.30;94.00;;;;;;5013942;28;20725;-93
2022/10/14 02:57:45;;;;;;;11.00;9.63;;;18.30;94.00;;;;;;4998449;28;20212;-95
2022/10/14 03:00:15;;;;;;;12.87;10.87;;;18.30;93.80;;;;;;5013632;28;20217;-93
2022/10/14 03:02:44;;;;;;;15.97;10.80;;;18.30;93.90;;;;;;5005090;28;20242;-94
2022/10/14 03:05:15;;;;;;;13.13;10.47;;;18.30;93.90;;;;;;5000821;28;20223;-93
2022/10/14 03:07:48;;;;;;;11.13;9.50;;;18.30;93.80;;;;;;5016759;28;20225;-94
2022/10/14 03:10:21;;;;;;;15.97;11.97;;;18.30;94.00;;;;;;5016127;28;20208;-94
2022/10/14 03:12:49;;;;;;;12.37;10.33;;;18.30;94.10;;;;;;5009060;28;20257;-93
2022/10/14 03:15:20;;;;;;;22.07;13.87;;;18.30;93.80;;;;;;5024587;28;20187;-94
2022/10/14 03:17:57;;;;;;;10.40;9.10;;;18.30;94.00;;;;;;5032296;28;20237;-94
2022/10/14 03:20:26;;;;;;;14.77;10.50;;;18.30;94.10;;;;;;5023348;28;20211;-94
2022/10/14 03:22:57;;;;;;;14.03;10.57;;;18.30;93.80;;;;;;5016604;28;22862;-94
2022/10/14 03:25:27;;;;;;;13.90;10.97;;;18.30;94.10;;;;;;5015087;28;20246;-94
2022/10/14 03:28:00;;;;;;;15.67;10.83;;;18.30;93.90;;;;;;5013500;28;20213;-94
2022/10/14 03:30:30;;;;;;;13.23;10.97;;;18.30;94.00;;;;;;5008352;28;20214;-94
2022/10/14 03:33:09;;;;;;;10.77;9.50;;;18.30;94.00;;;;;;5011970;28;20207;-95
2022/10/14 03:35:37;;;;;;;13.77;10.70;;;18.30;94.00;;;;;;5015175;28;20213;-92
2022/10/14 03:38:10;;;;;;;12.53;9.80;;;18.30;93.90;;;;;;5010816;28;20216;-94
2022/10/14 03:40:39;;;;;;;12.93;10.17;;;18.30;94.00;;;;;;5012606;28;20206;-95
2022/10/14 03:43:07;;;;;;;12.90;9.97;;;18.30;93.90;;;;;;5013748;28;20208;-94
2022/10/14 03:45:36;;;;;;;10.23;9.20;;;18.30;93.80;;;;;;5005107;28;20278;-95
2022/10/14 03:48:10;;;;;;;14.17;10.80;;;18.30;93.90;;;;;;5010168;28;20231;-96
2022/10/14 03:50:49;;;;;;;14.23;10.23;;;18.30;94.10;;;;;;5009406;28;20205;-95
2022/10/14 03:53:19;;;;;;;13.77;10.83;;;18.30;94.00;;;;;;5010686;28;20203;-94
2022/10/14 03:55:50;;;;;;;13.73;11.30;;;18.30;93.90;;;;;;5017387;28;20663;-96
2022/10/14 03:58:21;;;;;;;17.33;11.83;;;18.30;94.10;;;;;;5012130;28;20209;-94
2022/10/14 04:00:48;;;;;;;14.57;10.97;;;18.30;94.10;;;;;;5014787;28;20785;-95
2022/10/14 04:03:21;;;;;;;11.00;9.80;;;18.30;93.80;;;;;;5011653;28;20214;-94
2022/10/14 04:05:51;;;;;;;13.70;10.37;;;18.30;94.00;;;;;;5009647;28;20225;-94
2022/10/14 04:08:18;;;;;;;15.47;10.47;;;18.30;94.00;;;;;;5008412;28;20278;-95
2022/10/14 04:10:46;;;;;;;16.20;11.10;;;18.30;93.90;;;;;;5015625;28;20214;-94
2022/10/14 04:13:18;;;;;;;15.67;10.93;;;18.30;93.90;;;;;;5029409;28;20212;-94
2022/10/14 04:15:48;;;;;;;10.60;9.43;;;18.30;94.20;;;;;;5027825;28;20216;-94
2022/10/14 04:18:21;;;;;;;13.47;11.13;;;18.30;93.90;;;;;;5011347;28;20224;-93
2022/10/14 04:20:54;;;;;;;13.97;11.23;;;18.40;94.20;;;;;;5009274;28;20704;-94
2022/10/14 04:23:22;;;;;;;12.60;10.17;;;18.30;94.20;;;;;;5008431;28;20263;-94
2022/10/14 04:25:50;;;;;;;14.57;10.57;;;18.40;94.10;;;;;;5018616;28;20281;-94
2022/10/14 04:28:18;;;;;;;12.07;10.43;;;18.40;94.10;;;;;;5017868;27;20362;-94
2022/10/14 04:30:53;;;;;;;15.23;11.10;;;18.40;93.90;;;;;;5010062;28;20289;-94
2022/10/14 04:33:25;;;;;;;15.80;10.90;;;18.30;94.10;;;;;;5008291;28;20218;-94
2022/10/14 04:36:28;;;;;;;13.30;10.63;;;18.40;94.10;;;;;;5026967;28;20182;-95
2022/10/14 04:38:59;;;;;;;11.37;9.77;;;18.30;94.30;;;;;;5008285;28;20202;-94
2022/10/14 04:41:26;;;;;;;13.63;10.53;;;18.30;93.90;;;;;;5010072;28;20204;-94
2022/10/14 04:43:54;;;;;;;12.80;10.40;;;18.30;93.90;;;;;;5002707;28;20209;-93
2022/10/14 04:46:21;;;;;;;14.57;10.63;;;18.40;94.00;;;;;;5013220;28;20306;-95
2022/10/14 04:48:52;;;;;;;13.13;10.40;;;18.30;93.90;;;;;;5009929;28;20565;-95
2022/10/14 04:51:20;;;;;;;16.73;11.37;;;18.40;94.20;;;;;;5010190;28;20208;-94
2022/10/14 04:53:48;;;;;;;13.47;10.60;;;18.30;94.00;;;;;;5011548;28;20288;-93
2022/10/14 04:56:16;;;;;;;16.47;11.63;;;18.40;94.00;;;;;;5010581;28;20219;-94
2022/10/14 04:58:45;;;;;;;16.63;11.30;;;18.30;94.10;;;;;;5010812;28;20249;-93
2022/10/14 05:01:12;;;;;;;14.33;11.27;;;18.30;94.10;;;;;;5010390;28;20234;-94
2022/10/14 05:03:39;;;;;;;15.93;12.63;;;18.40;94.10;;;;;;5010496;28;20603;-91
2022/10/14 05:06:09;;;;;;;19.50;13.17;;;18.30;94.10;;;;;;5008589;28;20223;-93
2022/10/14 05:08:38;;;;;;;19.47;13.60;;;18.30;94.20;;;;;;5019092;28;20222;-94
2022/10/14 05:11:05;;;;;;;20.43;13.93;;;18.30;94.30;;;;;;5020314;28;20202;-94
2022/10/14 05:13:32;;;;;;;20.03;13.33;;;18.30;94.20;;;;;;5020219;28;20295;-93
2022/10/14 05:15:59;;;;;;;20.50;13.47;;;18.30;94.20;;;;;;5007178;28;20226;-95
2022/10/14 05:18:26;;;;;;;19.03;12.93;;;18.40;94.20;;;;;;5004989;28;20211;-94
2022/10/14 05:20:55;;;;;;;17.23;12.03;;;18.30;94.20;;;;;;5011519;28;20215;-95
2022/10/14 05:23:26;;;;;;;17.10;12.30;;;18.40;94.30;;;;;;5015307;28;20200;-94
2022/10/14 05:25:57;;;;;;;16.20;11.70;;;18.40;94.30;;;;;;5016338;28;20224;-94
2022/10/14 05:28:27;;;;;;;14.93;11.93;;;18.40;94.40;;;;;;5006605;28;20223;-95
2022/10/14 05:30:58;;;;;;;13.17;11.43;;;18.40;94.40;;;;;;5022082;28;20219;-94
2022/10/14 05:33:29;;;;;;;18.20;12.60;;;18.40;94.40;;;;;;5018766;28;20575;-94
2022/10/14 05:36:00;;;;;;;14.23;12.23;;;18.40;94.30;;;;;;5017626;28;20211;-94
2022/10/14 05:38:35;;;;;;;15.20;12.43;;;18.40;94.50;;;;;;5020765;28;20208;-94
2022/10/14 05:41:05;;;;;;;14.53;12.87;;;18.40;94.50;;;;;;5021347;28;20261;-95
2022/10/14 05:43:33;;;;;;;15.80;12.97;;;18.40;94.30;;;;;;5021514;28;20213;-94
2022/10/14 05:46:01;;;;;;;15.53;12.77;;;18.40;94.40;;;;;;5021002;28;20244;-94
2022/10/14 05:48:31;;;;;;;15.77;12.50;;;18.40;94.70;;;;;;5019969;28;20200;-93
2022/10/14 05:51:02;;;;;;;15.77;13.20;;;18.40;94.50;;;;;;5010089;28;20228;-94
2022/10/14 05:53:31;;;;;;;16.17;13.47;;;18.40;94.50;;;;;;4999918;28;20209;-93
2022/10/14 05:56:04;;;;;;;16.10;13.50;;;18.40;94.40;;;;;;5011842;28;20208;-93
2022/10/14 05:58:40;;;;;;;14.93;12.70;;;18.40;94.60;;;;;;5014036;28;20262;-95
2022/10/14 06:01:12;;;;;;;20.53;13.73;;;18.40;94.60;;;;;;5013764;28;20750;-92
2022/10/14 06:03:40;;;;;;;22.37;14.40;;;18.40;94.50;;;;;;5021202;28;20349;-94
2022/10/14 06:08:55;;;;;;;19.47;14.47;;;18.40;94.80;;;;;;5021913;28;20207;-94
2022/10/14 06:11:28;;;;;;;17.67;12.60;;;18.40;94.60;;;;;;5014523;28;20212;-93
2022/10/14 06:13:58;;;;;;;17.80;12.53;;;18.30;94.80;;;;;;5016162;28;20681;-93
2022/10/14 06:16:26;;;;;;;19.53;13.27;;;18.30;94.80;;;;;;5012339;28;20541;-94
2022/10/14 06:18:57;;;;;;;14.93;11.13;;;18.30;94.80;;;;;;5012990;28;20243;-94
2022/10/14 06:21:26;;;;;;;16.60;11.73;;;18.30;94.90;;;;;;5005127;28;20199;-93
2022/10/14 06:24:03;;;;;;;14.83;11.07;;;18.30;95.00;;;;;;5021972;28;20295;-93
2022/10/14 06:26:37;;;;;;;13.37;10.07;;;18.30;95.10;;;;;;5024831;28;20239;-95
2022/10/14 06:29:05;;;;;;;13.83;11.10;;;18.30;95.10;;;;;;5023219;28;20219;-93
2022/10/14 06:31:33;;;;;;;19.03;12.30;;;18.30;94.90;;;;;;5012528;28;20204;-91
2022/10/14 06:34:00;;;;;;;16.53;10.67;;;18.40;95.00;;;;;;5007755;28;20226;-93
2022/10/14 06:36:28;;;;;;;14.27;10.93;;;18.40;94.80;;;;;;5026528;28;20654;-93
2022/10/14 06:38:55;;;;;;;20.83;12.53;;;18.30;94.90;;;;;;5007196;28;20232;-94
2022/10/14 06:41:23;;;;;;;14.10;9.83;;;18.40;94.90;;;;;;5008819;28;20226;-92
2022/10/14 06:43:51;;;;;;;15.80;10.83;;;18.40;94.90;;;;;;5007505;28;20232;-94
2022/10/14 06:46:19;;;;;;;15.07;9.93;;;18.40;95.00;;;;;;5007848;28;20236;-93
2022/10/14 06:48:50;;;;;;;14.00;10.40;;;18.40;95.00;;;;;;5006585;28;20210;-93
2022/10/14 06:51:17;;;;;;;15.10;9.70;;;18.40;95.00;;;;;;5006485;28;20263;-91
2022/10/14 06:53:47;;;;;;;20.83;14.93;;;18.40;94.90;;;;;;5007812;28;20208;-92
2022/10/14 06:56:14;;;;;;;19.70;16.20;;;18.40;94.90;;;;;;5008654;28;20216;-92
2022/10/14 06:58:42;;;;;;;48.63;36.27;;;18.40;95.00;;;;;;5009015;28;20208;-92
2022/10/14 07:01:17;;;;;;;29.83;23.30;;;18.40;95.10;;;;;;5026279;28;20200;-93
2022/10/14 07:03:57;;;;;;;24.90;17.97;;;18.40;95.20;;;;;;5029104;28;20201;-92
2022/10/14 07:06:24;;;;;;;17.53;12.03;;;18.40;95.30;;;;;;5013047;28;20218;-92
2022/10/14 07:08:52;;;;;;;13.77;9.93;;;18.40;95.00;;;;;;5007123;28;20213;-92
2022/10/14 07:11:19;;;;;;;13.23;11.23;;;18.40;95.20;;;;;;5010034;28;20200;-92
2022/10/14 07:13:48;;;;;;;17.77;10.93;;;18.40;95.10;;;;;;5005965;28;20231;-91
2022/10/14 07:16:19;;;;;;;14.60;9.10;;;18.50;95.30;;;;;;5004605;28;20663;-93
2022/10/14 07:18:47;;;;;;;12.83;8.70;;;18.50;95.30;;;;;;5001572;28;20657;-91
2022/10/14 07:21:15;;;;;;;12.37;8.73;;;18.50;95.20;;;;;;5006810;28;20231;-92
2022/10/14 07:23:43;;;;;;;11.57;8.20;;;18.50;95.10;;;;;;5006231;28;20942;-92
2022/10/14 07:26:10;;;;;;;12.33;7.87;;;18.50;95.30;;;;;;5005322;28;20231;-92
2022/10/14 07:28:37;;;;;;;13.17;8.43;;;18.50;95.10;;;;;;5003789;28;20285;-92
2022/10/14 07:31:09;;;;;;;11.57;8.20;;;18.50;95.10;;;;;;5010457;28;20257;-92
2022/10/14 07:33:40;;;;;;;18.20;11.47;;;18.50;95.20;;;;;;5003769;28;20208;-92
2022/10/14 07:36:12;;;;;;;17.70;10.20;;;18.50;95.30;;;;;;5000850;28;20287;-92
2022/10/14 07:38:40;;;;;;;14.47;9.67;;;18.50;95.30;;;;;;4992799;28;20206;-91
2022/10/14 07:41:15;;;;;;;12.57;9.07;;;18.50;95.20;;;;;;4999838;28;20213;-92
2022/10/14 07:43:43;;;;;;;16.60;10.57;;;18.50;95.30;;;;;;5007852;28;20231;-93
2022/10/14 07:46:11;;;;;;;19.33;11.00;;;18.50;95.20;;;;;;5005372;28;20232;-93
2022/10/14 07:48:40;;;;;;;18.63;11.67;;;18.50;95.20;;;;;;5002191;28;20670;-93
2022/10/14 07:51:08;;;;;;;12.73;9.70;;;18.60;95.30;;;;;;5005749;28;20356;-92
2022/10/14 07:53:36;;;;;;;15.60;10.77;;;18.60;95.20;;;;;;5001934;28;20299;-92
2022/10/14 07:56:04;;;;;;;14.50;10.27;;;18.60;95.30;;;;;;5002217;28;20209;-93
2022/10/14 07:58:31;;;;;;;13.73;10.13;;;18.60;95.20;;;;;;5004600;28;20281;-92
2022/10/14 08:00:59;;;;;;;13.70;10.30;;;18.60;95.20;;;;;;4996862;28;20234;-93
2022/10/14 08:03:26;;;;;;;17.30;11.07;;;18.60;95.20;;;;;;5000724;28;20269;-93
2022/10/14 08:06:02;;;;;;;21.40;13.23;;;18.70;95.20;;;;;;5007631;28;20249;-93
2022/10/14 08:08:29;;;;;;;15.53;11.90;;;18.70;95.60;;;;;;5014638;28;20212;-92
2022/10/14 08:11:05;;;;;;;15.10;10.73;;;18.70;95.10;;;;;;5032060;27;20204;-93
2022/10/14 08:13:33;;;;;;;17.60;11.30;;;18.70;95.30;;;;;;5036303;28;20214;-92
2022/10/14 08:16:03;;;;;;;12.80;10.63;;;18.70;95.10;;;;;;5027948;27;20209;-93
2022/10/14 08:18:30;;;;;;;17.73;12.17;;;18.70;95.20;;;;;;5020536;28;20657;-93
2022/10/14 08:21:02;;;;;;;16.30;12.03;;;18.70;95.10;;;;;;5016735;28;20291;-92
2022/10/14 08:23:31;;;;;;;21.03;13.90;;;18.70;95.20;;;;;;5012474;28;20207;-92
2022/10/14 08:25:59;;;;;;;17.97;12.03;;;18.70;95.20;;;;;;5017760;28;20666;-92
2022/10/14 08:28:29;;;;;;;17.47;13.00;;;18.70;95.20;;;;;;5012177;28;21108;-93
2022/10/14 08:30:56;;;;;;;20.90;14.67;;;18.80;95.20;;;;;;5012763;28;20715;-93
2022/10/14 08:33:23;;;;;;;16.43;13.30;;;18.80;95.30;;;;;;5016284;28;20245;-92
2022/10/14 08:35:50;;;;;;;22.60;14.60;;;18.80;95.30;;;;;;5013648;28;20207;-92
2022/10/14 08:38:24;;;;;;;22.47;14.67;;;18.80;95.30;;;;;;5010169;28;21664;-92
2022/10/14 08:41:02;;;;;;;22.53;15.07;;;18.90;95.40;;;;;;5011970;28;20227;-93
2022/10/14 08:43:35;;;;;;;19.00;14.30;;;18.80;95.40;;;;;;5012670;28;20300;-92
2022/10/14 08:46:11;;;;;;;17.07;12.90;;;18.80;95.40;;;;;;5010387;28;20296;-93
2022/10/14 08:48:38;;;;;;;19.80;14.47;;;18.90;95.40;;;;;;5013422;28;20211;-93
2022/10/14 08:51:11;;;;;;;22.60;15.40;;;18.90;95.30;;;;;;5014480;28;20208;-93
2022/10/14 08:53:44;;;;;;;19.23;13.07;;;18.90;95.40;;;;;;5013697;28;20196;-92
2022/10/14 08:56:13;;;;;;;15.77;11.77;;;18.90;95.40;;;;;;5026795;28;20239;-93
2022/10/14 08:58:43;;;;;;;21.73;13.80;;;18.90;95.30;;;;;;5007565;28;20223;-91
2022/10/14 09:01:20;;;;;;;16.50;12.23;;;19.00;95.40;;;;;;5011329;28;20212;-93
2022/10/14 09:03:50;;;;;;;17.93;12.90;;;19.00;95.40;;;;;;5018786;28;20214;-93
2022/10/14 09:06:25;;;;;;;17.67;10.60;;;19.00;95.30;;;;;;5029335;28;20208;-93
2022/10/14 09:08:59;;;;;;;12.43;10.23;;;19.00;95.40;;;;;;5013480;28;20277;-93
2022/10/14 09:11:38;;;;;;;14.63;11.37;;;19.00;95.40;;;;;;5011640;28;20225;-93
2022/10/14 09:14:12;;;;;;;17.90;11.00;;;19.00;95.40;;;;;;5009499;28;20705;-93
2022/10/14 09:16:45;;;;;;;20.50;13.23;;;19.00;95.40;;;;;;5006519;28;20366;-94
2022/10/14 09:19:30;;;;;;;18.10;13.07;;;19.00;95.40;;;;;;5011046;28;20316;-93
2022/10/14 09:22:02;;;;;;;15.57;11.97;;;19.00;95.60;;;;;;5007462;28;20230;-93
2022/10/14 09:24:38;;;;;;;22.03;13.67;;;19.10;95.50;;;;;;5007672;28;20231;-93
2022/10/14 09:27:11;;;;;;;15.70;11.67;;;19.10;95.70;;;;;;5008097;28;20251;-92
2022/10/14 09:29:46;;;;;;;17.87;11.87;;;19.10;95.70;;;;;;5006942;28;21047;-93
2022/10/14 09:32:16;;;;;;;16.70;11.67;;;19.10;95.70;;;;;;4995776;28;20280;-93
2022/10/14 09:34:55;;;;;;;16.47;11.47;;;19.10;96.00;;;;;;5006462;28;20209;-92
2022/10/14 09:37:27;;;;;;;15.80;12.03;;;19.20;95.70;;;;;;5007327;28;20205;-91
2022/10/14 09:40:04;;;;;;;15.70;12.63;;;19.20;95.70;;;;;;4999985;28;20244;-92
2022/10/14 09:42:44;;;;;;;16.63;12.73;;;19.20;95.70;;;;;;5001356;28;20285;-92
2022/10/14 09:45:13;;;;;;;15.80;11.67;;;19.30;95.80;;;;;;5007874;28;20209;-93
2022/10/14 09:47:48;;;;;;;19.77;12.77;;;19.30;95.70;;;;;;5007778;28;20254;-93
2022/10/14 09:50:31;;;;;;;15.30;12.47;;;19.30;95.60;;;;;;5008942;28;21003;-92
2022/10/14 09:53:02;;;;;;;16.43;13.00;;;19.30;95.80;;;;;;5007983;28;20216;-92
2022/10/14 09:55:49;;;;;;;13.57;11.03;;;19.40;95.50;;;;;;5009306;28;20273;-92
2022/10/14 09:58:19;;;;;;;15.80;13.07;;;19.40;95.80;;;;;;4997615;28;20201;-92
2022/10/14 10:00:47;;;;;;;20.00;13.23;;;19.40;95.80;;;;;;5011399;28;20744;-92
2022/10/14 10:03:26;;;;;;;18.20;12.40;;;19.40;95.70;;;;;;5014494;28;20209;-92
2022/10/14 10:09:19;;;;;;;20.53;13.17;;;19.50;95.90;;;;;;5021891;28;20209;-94
2022/10/14 10:11:47;;;;;;;15.63;12.10;;;19.50;95.50;;;;;;5008531;28;21030;-91
2022/10/14 10:14:18;;;;;;;15.10;12.03;;;19.50;95.40;;;;;;4994464;28;20206;-92
2022/10/14 10:16:48;;;;;;;17.47;12.10;;;19.60;95.50;;;;;;5016801;28;20217;-93
2022/10/14 10:19:30;;;;;;;16.57;12.47;;;19.70;95.40;;;;;;4994173;28;20216;-92
2022/10/14 10:22:17;;;;;;;16.13;12.03;;;19.60;95.50;;;;;;4988434;28;20218;-91
2022/10/14 10:24:45;;;;;;;18.43;12.90;;;19.70;95.20;;;;;;5008375;28;20212;-92
2022/10/14 10:27:25;;;;;;;13.33;10.03;;;19.70;95.20;;;;;;5011967;28;20251;-92
2022/10/14 10:29:56;;;;;;;16.40;11.60;;;19.80;94.90;;;;;;5004398;28;20715;-92
2022/10/14 10:35:22;;;;;;;13.43;10.47;;;19.90;94.90;;;;;;5012822;28;20206;-92
2022/10/14 10:38:13;;;;;;;22.10;13.60;;;19.90;94.90;;;;;;5004846;28;20213;-92
2022/10/14 10:40:54;;;;;;;13.20;10.40;;;20.00;94.90;;;;;;5009258;28;20693;-93
2022/10/14 10:43:41;;;;;;;17.27;10.67;;;20.10;94.70;;;;;;5001665;28;20206;-93
2022/10/14 10:46:30;;;;;;;13.60;8.13;;;20.10;94.80;;;;;;5009687;28;20203;-94
2022/10/14 10:49:05;;;;;;;15.83;8.60;;;20.20;94.20;;;;;;5009064;28;20232;-92
2022/10/14 10:51:41;;;;;;;6.87;4.93;;;20.30;93.60;;;;;;5021117;28;20215;-93
2022/10/14 10:54:26;;;;;;;9.43;5.30;;;20.40;93.30;;;;;;5022687;28;20270;-92
2022/10/14 10:56:57;;;;;;;8.17;6.90;;;20.40;92.40;;;;;;5027537;28;20245;-92
2022/10/14 10:59:57;;;;;;;10.90;5.80;;;20.40;92.50;;;;;;5024803;28;20201;-94
2022/10/14 11:02:55;;;;;;;14.50;6.27;;;20.50;92.30;;;;;;5021484;28;20212;-94
2022/10/14 11:05:35;;;;;;;12.37;8.27;;;20.50;91.50;;;;;;5027020;28;20235;-93
2022/10/14 11:12:02;;;;;;;13.73;7.77;;;20.60;90.90;;;;;;5017832;28;20279;-94
2022/10/14 11:14:40;;;;;;;21.30;15.67;;;20.70;90.90;;;;;;5015098;28;20203;-93
2022/10/14 11:17:14;;;;;;;9.73;6.10;;;20.80;91.00;;;;;;5017410;28;21024;-94
2022/10/14 11:19:49;;;;;;;8.47;4.83;;;20.80;90.80;;;;;;5013715;28;20197;-92
2022/10/14 11:22:28;;;;;;;9.63;5.10;;;20.90;91.00;;;;;;5009170;28;20328;-94
2022/10/14 11:25:02;;;;;;;10.23;5.27;;;20.90;90.40;;;;;;5007302;28;20638;-93
2022/10/14 11:27:36;;;;;;;11.80;6.50;;;21.10;90.50;;;;;;4994374;28;20222;-94
2022/10/14 11:30:19;;;;;;;7.93;4.57;;;21.10;90.00;;;;;;4994035;28;20228;-93
2022/10/14 11:33:09;;;;;;;6.03;3.47;;;21.20;88.90;;;;;;5020735;28;20731;-94
2022/10/14 11:35:51;;;;;;;7.53;4.10;;;21.30;86.60;;;;;;5019856;28;20201;-94
2022/10/14 11:38:48;;;;;;;7.30;3.63;;;21.30;85.60;;;;;;5017140;28;20208;-93
2022/10/14 11:41:31;;;;;;;4.53;2.80;;;21.40;84.20;;;;;;5018316;28;20206;-93
2022/10/14 11:44:08;;;;;;;6.73;3.73;;;21.40;83.30;;;;;;5017070;28;20265;-93
2022/10/14 11:46:41;;;;;;;9.13;4.87;;;21.50;83.00;;;;;;5025479;28;20202;-94
2022/10/14 11:49:22;;;;;;;5.57;3.10;;;21.60;83.70;;;;;;5017402;28;20236;-94
2022/10/14 11:51:52;;;;;;;13.13;6.30;;;21.60;82.50;;;;;;5041173;28;20221;-93
2022/10/14 11:54:28;;;;;;;12.27;9.57;;;21.60;82.50;;;;;;5035541;28;20534;-93
2022/10/14 11:56:58;;;;;;;8.57;4.60;;;21.60;80.90;;;;;;5011610;28;20233;-93
2022/10/14 12:02:29;;;;;;;5.13;3.13;;;21.70;79.20;;;;;;4987612;28;20302;-94
2022/10/14 12:05:04;;;;;;;8.17;4.33;;;21.70;80.10;;;;;;4994834;28;20307;-93
2022/10/14 12:07:39;;;;;;;6.03;3.43;;;21.60;78.70;;;;;;5008641;28;20250;-93
2022/10/14 12:10:17;;;;;;;6.77;3.70;;;21.60;78.20;;;;;;5007724;28;20258;-94
2022/10/14 12:12:45;;;;;;;11.37;7.33;;;21.70;78.80;;;;;;5004427;28;20221;-94
2022/10/14 12:15:18;;;;;;;20.30;14.83;;;21.60;79.40;;;;;;5007974;28;20927;-93
2022/10/14 12:17:51;;;;;;;9.70;5.77;;;21.70;78.00;;;;;;5015861;28;20198;-95
2022/10/14 12:20:29;;;;;;;8.13;5.17;;;21.60;78.40;;;;;;5019329;28;20205;-92
2022/10/14 12:23:01;;;;;;;8.30;4.67;;;21.60;77.70;;;;;;5012024;28;20320;-93
2022/10/14 12:25:36;;;;;;;20.37;8.17;;;21.60;78.50;;;;;;5006483;28;20233;-92
2022/10/14 12:28:03;;;;;;;13.63;8.93;;;21.60;78.20;;;;;;5007510;28;20748;-93
2022/10/14 12:30:36;;;;;;;14.13;6.03;;;21.60;78.30;;;;;;5005332;28;20225;-93
2022/10/14 12:33:09;;;;;;;7.73;4.20;;;21.60;76.70;;;;;;5008420;28;20750;-94
2022/10/14 12:35:53;;;;;;;9.13;4.33;;;21.60;77.00;;;;;;5013036;28;20218;-93
2022/10/14 12:38:22;;;;;;;8.40;4.20;;;21.70;77.60;;;;;;5022532;28;20257;-92
2022/10/14 12:40:54;;;;;;;6.37;3.50;;;21.60;78.00;;;;;;5021134;28;20202;-93
2022/10/14 12:43:25;;;;;;;6.70;3.63;;;21.60;77.20;;;;;;5024010;28;20243;-92
2022/10/14 12:46:09;;;;;;;7.33;4.10;;;21.60;77.30;;;;;;5030331;28;20305;-93
2022/10/14 12:48:49;;;;;;;10.73;5.27;;;21.70;76.10;;;;;;5013373;28;20225;-94
2022/10/14 12:51:24;;;;;;;6.20;4.07;;;21.60;76.00;;;;;;5014660;28;20205;-93
2022/10/14 12:53:58;;;;;;;8.60;4.23;;;21.70;75.10;;;;;;5025652;28;20216;-94
2022/10/14 12:56:37;;;;;;;10.07;4.50;;;21.70;76.80;;;;;;5016504;28;20670;-94
2022/10/14 12:59:24;;;;;;;6.97;4.27;;;21.60;76.50;;;;;;5022982;28;20209;-94
2022/10/14 13:02:00;;;;;;;8.10;5.00;;;21.70;75.50;;;;;;5006109;28;20209;-95
2022/10/14 13:04:33;;;;;;;6.83;4.30;;;21.70;76.10;;;;;;5019266;28;20201;-91
2022/10/14 13:07:33;;;;;;;6.77;4.60;;;21.70;76.00;;;;;;5023354;28;20322;-94
2022/10/14 13:10:27;;;;;;;11.23;6.33;;;21.70;74.40;;;;;;5025760;28;20186;-93
2022/10/14 13:12:56;;;;;;;8.03;5.27;;;21.70;73.40;;;;;;5028151;28;20206;-94
2022/10/14 13:15:51;;;;;;;16.00;8.17;;;21.70;74.00;;;;;;5028153;28;20206;-93